sensor_id;sensor_type;location;lat;lon;timestamp;pressure;altitude;pressure_sealevel;temperature;humidity
57904;BME280;43720;47.462;19.030;2023-04-04T03:57:18;100499.91;;;2.77;49.50
57904;BME280;43720;47.462;19.030;2023-04-04T04:00:21;100499.16;;;2.80;48.92
57904;BME280;43720;47.462;19.030;2023-04-04T04:03:26;100495.34;;;2.72;50.93
57904;BME280;43720;47.462;19.030;2023-04-04T04:06:29;100494.00;;;2.80;50.94
57904;BME280;43720;47.462;19.030;2023-04-04T04:09:31;100487.81;;;2.58;50.72
57904;BME280;43720;47.462;19.030;2023-04-04T04:12:33;100487.97;;;2.61;49.14
57904;BME280;43720;47.462;19.030;2023-04-04T04:15:36;100481.09;;;2.62;50.55
57904;BME280;43720;47.462;19.030;2023-04-04T04:18:39;100487.34;;;2.67;52.06
57904;BME280;43720;47.462;19.030;2023-04-04T04:21:42;100480.16;;;2.60;49.12
57904;BME280;43720;47.462;19.030;2023-04-04T04:24:45;100479.62;;;2.67;51.53
57904;BME280;43720;47.462;19.030;2023-04-04T04:27:48;100482.59;;;2.57;50.02
57904;BME280;43720;47.462;19.030;2023-04-04T04:30:51;100480.00;;;2.57;50.62
57904;BME280;43720;47.462;19.030;2023-04-04T04:33:54;100475.00;;;2.60;50.14
57904;BME280;43720;47.462;19.030;2023-04-04T04:36:57;100471.00;;;2.66;49.64
57904;BME280;43720;47.462;19.030;2023-04-04T04:39:59;100476.03;;;2.63;49.34
57904;BME280;43720;47.462;19.030;2023-04-04T04:43:05;100480.59;;;2.69;51.48
57904;BME280;43720;47.462;19.030;2023-04-04T04:46:07;100468.66;;;2.71;50.11
57904;BME280;43720;47.462;19.030;2023-04-04T04:49:10;100478.88;;;2.69;51.93
57904;BME280;43720;47.462;19.030;2023-04-04T04:52:13;100474.69;;;2.72;50.37
57904;BME280;43720;47.462;19.030;2023-04-04T04:55:16;100473.88;;;2.73;48.61
57904;BME280;43720;47.462;19.030;2023-04-04T04:58:20;100475.84;;;2.78;48.96
57904;BME280;43720;47.462;19.030;2023-04-04T05:01:25;100471.72;;;2.82;49.88
57904;BME280;43720;47.462;19.030;2023-04-04T05:04:28;100472.28;;;2.94;51.17
57904;BME280;43720;47.462;19.030;2023-04-04T05:07:33;100471.84;;;3.03;49.75
57904;BME280;43720;47.462;19.030;2023-04-04T05:10:37;100467.81;;;3.09;50.08
57904;BME280;43720;47.462;19.030;2023-04-04T05:13:40;100462.66;;;3.09;49.31
57904;BME280;43720;47.462;19.030;2023-04-04T05:16:42;100452.78;;;3.01;48.17
57904;BME280;43720;47.462;19.030;2023-04-04T05:19:47;100463.28;;;2.86;47.91
57904;BME280;43720;47.462;19.030;2023-04-04T05:22:50;100458.78;;;3.00;48.64
57904;BME280;43720;47.462;19.030;2023-04-04T05:25:53;100460.06;;;3.09;48.38
57904;BME280;43720;47.462;19.030;2023-04-04T05:28:56;100472.47;;;3.16;48.48
57904;BME280;43720;47.462;19.030;2023-04-04T05:32:00;100486.69;;;3.26;48.47
57904;BME280;43720;47.462;19.030;2023-04-04T05:35:03;100482.88;;;3.18;46.93
57904;BME280;43720;47.462;19.030;2023-04-04T05:38:07;100485.03;;;3.28;50.57
57904;BME280;43720;47.462;19.030;2023-04-04T05:41:09;100487.72;;;3.30;47.71
57904;BME280;43720;47.462;19.030;2023-04-04T05:44:12;100481.91;;;3.16;48.45
57904;BME280;43720;47.462;19.030;2023-04-04T05:47:15;100485.09;;;3.10;48.69
57904;BME280;43720;47.462;19.030;2023-04-04T05:50:17;100492.53;;;3.22;49.63
57904;BME280;43720;47.462;19.030;2023-04-04T05:53:22;100492.44;;;3.21;49.28
57904;BME280;43720;47.462;19.030;2023-04-04T05:56:24;100492.38;;;3.19;49.08
57904;BME280;43720;47.462;19.030;2023-04-04T05:59:27;100492.72;;;3.27;47.58
57904;BME280;43720;47.462;19.030;2023-04-04T06:02:30;100492.25;;;3.35;49.63
57904;BME280;43720;47.462;19.030;2023-04-04T06:05:33;100505.37;;;3.40;50.73
57904;BME280;43720;47.462;19.030;2023-04-04T06:08:36;100488.06;;;3.57;45.27
57904;BME280;43720;47.462;19.030;2023-04-04T06:11:54;100494.44;;;3.65;45.98
57904;BME280;43720;47.462;19.030;2023-04-04T06:14:56;100484.16;;;3.66;43.59
57904;BME280;43720;47.462;19.030;2023-04-04T06:17:59;100492.75;;;3.65;43.62
57904;BME280;43720;47.462;19.030;2023-04-04T06:21:02;100495.53;;;3.70;44.18
57904;BME280;43720;47.462;19.030;2023-04-04T06:24:05;100493.28;;;3.78;43.88
57904;BME280;43720;47.462;19.030;2023-04-04T06:27:07;100498.59;;;4.02;45.30
57904;BME280;43720;47.462;19.030;2023-04-04T06:30:10;100500.34;;;4.22;44.22
57904;BME280;43720;47.462;19.030;2023-04-04T06:33:15;100480.31;;;4.18;43.27
57904;BME280;43720;47.462;19.030;2023-04-04T06:36:18;100464.00;;;4.19;43.44
57904;BME280;43720;47.462;19.030;2023-04-04T06:39:21;100450.41;;;4.25;43.15
57904;BME280;43720;47.462;19.030;2023-04-04T06:42:24;100464.00;;;4.19;43.35
57904;BME280;43720;47.462;19.030;2023-04-04T06:45:27;100456.28;;;4.00;43.16
57904;BME280;43720;47.462;19.030;2023-04-04T06:48:30;100451.13;;;4.00;44.16
57904;BME280;43720;47.462;19.030;2023-04-04T06:51:33;100447.88;;;4.05;43.97
57904;BME280;43720;47.462;19.030;2023-04-04T06:54:35;100435.53;;;3.98;43.94
57904;BME280;43720;47.462;19.030;2023-04-04T06:57:38;100436.03;;;4.10;44.46
57904;BME280;43720;47.462;19.030;2023-04-04T07:00:41;100449.91;;;4.12;45.67
57904;BME280;43720;47.462;19.030;2023-04-04T07:03:44;100441.72;;;4.23;44.01
57904;BME280;43720;47.462;19.030;2023-04-04T07:06:46;100450.97;;;4.17;43.63
57904;BME280;43720;47.462;19.030;2023-04-04T07:09:49;100459.12;;;4.27;43.34
57904;BME280;43720;47.462;19.030;2023-04-04T07:12:51;100458.13;;;4.23;42.65
57904;BME280;43720;47.462;19.030;2023-04-04T07:15:54;100463.78;;;4.35;44.04
57904;BME280;43720;47.462;19.030;2023-04-04T07:18:56;100465.81;;;4.43;43.38
57904;BME280;43720;47.462;19.030;2023-04-04T07:21:58;100471.34;;;4.52;42.77
57904;BME280;43720;47.462;19.030;2023-04-04T07:25:01;100474.28;;;4.38;42.40
57904;BME280;43720;47.462;19.030;2023-04-04T07:28:03;100464.66;;;4.57;42.62
57904;BME280;43720;47.462;19.030;2023-04-04T07:31:14;100473.00;;;4.72;41.88
57904;BME280;43720;47.462;19.030;2023-04-04T07:34:16;100468.06;;;4.56;44.05
57904;BME280;43720;47.462;19.030;2023-04-04T07:37:18;100469.38;;;4.67;42.67
57904;BME280;43720;47.462;19.030;2023-04-04T07:40:22;100471.53;;;5.00;41.91
57904;BME280;43720;47.462;19.030;2023-04-04T07:43:24;100464.47;;;5.42;40.97
57904;BME280;43720;47.462;19.030;2023-04-04T07:46:27;100472.81;;;5.83;42.26
57904;BME280;43720;47.462;19.030;2023-04-04T07:49:29;100465.03;;;6.07;39.37
57904;BME280;43720;47.462;19.030;2023-04-04T07:52:31;100466.91;;;6.11;39.58
57904;BME280;43720;47.462;19.030;2023-04-04T07:55:34;100469.34;;;6.06;39.11
57904;BME280;43720;47.462;19.030;2023-04-04T07:58:36;100463.50;;;6.12;39.03
57904;BME280;43720;47.462;19.030;2023-04-04T08:01:39;100482.88;;;6.23;39.50
57904;BME280;43720;47.462;19.030;2023-04-04T08:04:41;100472.00;;;6.08;39.70
57904;BME280;43720;47.462;19.030;2023-04-04T08:07:43;100469.91;;;6.23;39.51
57904;BME280;43720;47.462;19.030;2023-04-04T08:10:46;100465.72;;;6.01;38.59
57904;BME280;43720;47.462;19.030;2023-04-04T08:13:50;100454.03;;;6.14;38.99
57904;BME280;43720;47.462;19.030;2023-04-04T08:16:53;100462.12;;;5.98;39.05
57904;BME280;43720;47.462;19.030;2023-04-04T08:19:55;100462.75;;;6.16;41.89
57904;BME280;43720;47.462;19.030;2023-04-04T08:22:57;100483.59;;;6.19;37.85
57904;BME280;43720;47.462;19.030;2023-04-04T08:25:59;100480.94;;;6.16;37.86
57904;BME280;43720;47.462;19.030;2023-04-04T08:29:02;100469.00;;;6.23;38.14
57904;BME280;43720;47.462;19.030;2023-04-04T08:32:05;100468.31;;;6.54;38.73
57904;BME280;43720;47.462;19.030;2023-04-04T08:35:07;100478.56;;;6.49;38.29
57904;BME280;43720;47.462;19.030;2023-04-04T08:38:10;100477.37;;;6.67;40.23
57904;BME280;43720;47.462;19.030;2023-04-04T08:41:13;100488.22;;;7.09;40.30
57904;BME280;43720;47.462;19.030;2023-04-04T08:44:19;100470.00;;;7.38;37.76
57904;BME280;43720;47.462;19.030;2023-04-04T08:47:24;100456.78;;;7.62;37.39
57904;BME280;43720;47.462;19.030;2023-04-04T08:50:28;100453.06;;;7.52;35.90
57904;BME280;43720;47.462;19.030;2023-04-04T08:53:32;100454.25;;;7.63;35.54
57904;BME280;43720;47.462;19.030;2023-04-04T08:56:35;100450.19;;;7.43;35.36
57904;BME280;43720;47.462;19.030;2023-04-04T08:59:38;100447.16;;;7.27;37.37
57904;BME280;43720;47.462;19.030;2023-04-04T09:05:43;100441.34;;;7.36;36.38
57904;BME280;43720;47.462;19.030;2023-04-04T09:08:46;100436.53;;;7.50;35.70
57904;BME280;43720;47.462;19.030;2023-04-04T09:11:49;100449.03;;;7.03;35.48
57904;BME280;43720;47.462;19.030;2023-04-04T09:14:57;100451.31;;;6.92;35.83
57904;BME280;43720;47.462;19.030;2023-04-04T09:18:06;100443.66;;;6.68;36.20
57904;BME280;43720;47.462;19.030;2023-04-04T09:21:09;100447.09;;;6.96;36.53
57904;BME280;43720;47.462;19.030;2023-04-04T09:24:13;100435.00;;;6.68;35.77
57904;BME280;43720;47.462;19.030;2023-04-04T09:27:16;100443.56;;;6.65;36.64
57904;BME280;43720;47.462;19.030;2023-04-04T09:30:19;100449.28;;;7.10;37.51
57904;BME280;43720;47.462;19.030;2023-04-04T09:33:22;100453.47;;;7.05;37.14
57904;BME280;43720;47.462;19.030;2023-04-04T09:36:25;100438.22;;;7.48;36.59
57904;BME280;43720;47.462;19.030;2023-04-04T09:39:28;100435.31;;;7.37;35.98
57904;BME280;43720;47.462;19.030;2023-04-04T09:42:31;100441.28;;;7.66;36.44
57904;BME280;43720;47.462;19.030;2023-04-04T09:45:35;100441.91;;;7.56;35.92
57904;BME280;43720;47.462;19.030;2023-04-04T09:48:38;100436.94;;;7.65;35.13
57904;BME280;43720;47.462;19.030;2023-04-04T09:51:40;100424.94;;;7.70;35.30
57904;BME280;43720;47.462;19.030;2023-04-04T09:54:44;100432.03;;;7.76;36.74
57904;BME280;43720;47.462;19.030;2023-04-04T09:57:49;100423.97;;;8.00;37.75
57904;BME280;43720;47.462;19.030;2023-04-04T10:00:58;100430.22;;;8.06;35.24
57904;BME280;43720;47.462;19.030;2023-04-04T10:04:02;100436.41;;;8.45;34.43
57904;BME280;43720;47.462;19.030;2023-04-04T10:07:11;100443.16;;;8.03;35.18
57904;BME280;43720;47.462;19.030;2023-04-04T10:10:14;100438.44;;;8.23;36.12
57904;BME280;43720;47.462;19.030;2023-04-04T10:13:27;100425.97;;;8.10;33.72
57904;BME280;43720;47.462;19.030;2023-04-04T10:16:31;100436.31;;;8.07;34.54
57904;BME280;43720;47.462;19.030;2023-04-04T10:19:35;100444.72;;;8.31;35.15
57904;BME280;43720;47.462;19.030;2023-04-04T10:22:38;100428.44;;;8.39;37.35
57904;BME280;43720;47.462;19.030;2023-04-04T10:25:42;100415.19;;;8.31;35.14
57904;BME280;43720;47.462;19.030;2023-04-04T10:28:45;100415.59;;;8.46;33.41
57904;BME280;43720;47.462;19.030;2023-04-04T10:31:55;100404.69;;;8.28;34.83
57904;BME280;43720;47.462;19.030;2023-04-04T10:35:05;100413.16;;;8.54;34.21
57904;BME280;43720;47.462;19.030;2023-04-04T10:38:12;100409.28;;;8.37;33.20
57904;BME280;43720;47.462;19.030;2023-04-04T10:41:15;100401.28;;;8.65;36.33
57904;BME280;43720;47.462;19.030;2023-04-04T10:44:37;100400.97;;;8.91;33.64
57904;BME280;43720;47.462;19.030;2023-04-04T10:47:40;100394.53;;;9.17;32.65
57904;BME280;43720;47.462;19.030;2023-04-04T10:50:44;100394.75;;;8.86;31.49
57904;BME280;43720;47.462;19.030;2023-04-04T10:53:54;100402.06;;;9.02;32.44
57904;BME280;43720;47.462;19.030;2023-04-04T10:56:57;100399.41;;;9.43;32.48
57904;BME280;43720;47.462;19.030;2023-04-04T11:00:12;100397.28;;;9.23;31.64
57904;BME280;43720;47.462;19.030;2023-04-04T11:03:16;100392.38;;;8.95;30.91
57904;BME280;43720;47.462;19.030;2023-04-04T11:06:22;100390.34;;;9.24;31.28
57904;BME280;43720;47.462;19.030;2023-04-04T11:09:54;100390.63;;;9.38;31.59
57904;BME280;43720;47.462;19.030;2023-04-04T11:13:00;100387.75;;;9.24;31.11
57904;BME280;43720;47.462;19.030;2023-04-04T11:16:16;100371.88;;;9.13;31.32
57904;BME280;43720;47.462;19.030;2023-04-04T11:19:21;100377.88;;;8.68;30.81
57904;BME280;43720;47.462;19.030;2023-04-04T11:22:24;100385.56;;;8.62;31.41
57904;BME280;43720;47.462;19.030;2023-04-04T11:25:28;100380.06;;;8.88;31.51
57904;BME280;43720;47.462;19.030;2023-04-04T11:31:44;100370.03;;;9.07;30.92
57904;BME280;43720;47.462;19.030;2023-04-04T11:34:48;100366.22;;;9.34;32.57
57904;BME280;43720;47.462;19.030;2023-04-04T11:40:56;100367.19;;;9.88;30.63
57904;BME280;43720;47.462;19.030;2023-04-04T11:44:07;100353.53;;;9.54;30.76
57904;BME280;43720;47.462;19.030;2023-04-04T11:47:10;100353.22;;;9.87;30.82
57904;BME280;43720;47.462;19.030;2023-04-04T11:50:14;100351.72;;;9.50;30.72
57904;BME280;43720;47.462;19.030;2023-04-04T11:53:17;100344.03;;;9.58;30.84
57904;BME280;43720;47.462;19.030;2023-04-04T11:56:19;100342.56;;;9.73;30.38
57904;BME280;43720;47.462;19.030;2023-04-04T11:59:22;100336.00;;;9.97;31.05
57904;BME280;43720;47.462;19.030;2023-04-04T12:02:25;100343.13;;;10.09;30.28
57904;BME280;43720;47.462;19.030;2023-04-04T12:05:33;100334.94;;;9.86;30.70
57904;BME280;43720;47.462;19.030;2023-04-04T12:08:36;100336.41;;;9.68;31.25
57904;BME280;43720;47.462;19.030;2023-04-04T12:11:39;100325.81;;;9.61;30.29
57904;BME280;43720;47.462;19.030;2023-04-04T12:14:42;100325.22;;;9.28;31.15
57904;BME280;43720;47.462;19.030;2023-04-04T12:17:44;100320.62;;;9.62;30.71
57904;BME280;43720;47.462;19.030;2023-04-04T12:20:49;100325.00;;;9.16;30.88
57904;BME280;43720;47.462;19.030;2023-04-04T12:23:54;100308.31;;;9.08;30.79
57904;BME280;43720;47.462;19.030;2023-04-04T12:26:57;100308.03;;;9.40;30.46
57904;BME280;43720;47.462;19.030;2023-04-04T12:30:00;100298.81;;;9.60;30.88
57904;BME280;43720;47.462;19.030;2023-04-04T12:33:03;100293.91;;;9.77;31.24
57904;BME280;43720;47.462;19.030;2023-04-04T12:36:06;100302.22;;;10.08;30.90
57904;BME280;43720;47.462;19.030;2023-04-04T12:39:09;100299.44;;;9.98;31.49
57904;BME280;43720;47.462;19.030;2023-04-04T12:42:22;100295.44;;;10.20;30.12
57904;BME280;43720;47.462;19.030;2023-04-04T12:45:25;100293.16;;;10.43;29.89
57904;BME280;43720;47.462;19.030;2023-04-04T12:48:28;100289.47;;;10.27;28.85
57904;BME280;43720;47.462;19.030;2023-04-04T12:51:31;100287.47;;;10.14;28.99
57904;BME280;43720;47.462;19.030;2023-04-04T12:54:38;100286.50;;;10.68;30.33
57904;BME280;43720;47.462;19.030;2023-04-04T12:57:40;100288.88;;;10.47;29.91
57904;BME280;43720;47.462;19.030;2023-04-04T13:00:44;100285.69;;;10.69;29.17
57904;BME280;43720;47.462;19.030;2023-04-04T13:03:46;100283.63;;;10.45;30.36
57904;BME280;43720;47.462;19.030;2023-04-04T13:06:49;100288.13;;;10.57;30.31
57904;BME280;43720;47.462;19.030;2023-04-04T13:09:57;100279.75;;;10.86;30.76
57904;BME280;43720;47.462;19.030;2023-04-04T13:13:00;100282.50;;;10.96;31.31
57904;BME280;43720;47.462;19.030;2023-04-04T13:16:05;100282.16;;;11.48;30.44
57904;BME280;43720;47.462;19.030;2023-04-04T13:19:09;100277.59;;;11.29;28.49
57904;BME280;43720;47.462;19.030;2023-04-04T13:22:11;100273.00;;;11.05;28.43
57904;BME280;43720;47.462;19.030;2023-04-04T13:25:13;100276.03;;;10.65;29.37
57904;BME280;43720;47.462;19.030;2023-04-04T13:28:16;100265.62;;;10.71;29.00
57904;BME280;43720;47.462;19.030;2023-04-04T13:31:18;100266.69;;;10.87;28.91
57904;BME280;43720;47.462;19.030;2023-04-04T13:34:22;100267.37;;;10.69;29.10
57904;BME280;43720;47.462;19.030;2023-04-04T13:37:28;100264.63;;;10.60;29.68
57904;BME280;43720;47.462;19.030;2023-04-04T13:40:30;100261.91;;;10.52;28.47
57904;BME280;43720;47.462;19.030;2023-04-04T13:43:33;100265.81;;;10.21;28.34
57904;BME280;43720;47.462;19.030;2023-04-04T13:46:35;100263.41;;;10.32;28.85
57904;BME280;43720;47.462;19.030;2023-04-04T13:49:37;100257.69;;;10.62;28.81
57904;BME280;43720;47.462;19.030;2023-04-04T13:52:40;100266.09;;;10.38;28.84
57904;BME280;43720;47.462;19.030;2023-04-04T13:55:43;100266.31;;;10.55;29.05
57904;BME280;43720;47.462;19.030;2023-04-04T13:59:05;100256.22;;;10.87;30.56
57904;BME280;43720;47.462;19.030;2023-04-04T14:02:08;100256.53;;;11.13;31.13
57904;BME280;43720;47.462;19.030;2023-04-04T14:05:11;100265.34;;;11.26;30.24
57904;BME280;43720;47.462;19.030;2023-04-04T14:08:14;100257.34;;;11.11;27.55
57904;BME280;43720;47.462;19.030;2023-04-04T14:11:18;100256.12;;;10.78;27.61
57904;BME280;43720;47.462;19.030;2023-04-04T14:14:20;100257.16;;;10.89;28.45
57904;BME280;43720;47.462;19.030;2023-04-04T14:17:22;100259.84;;;10.98;27.97
57904;BME280;43720;47.462;19.030;2023-04-04T14:20:24;100265.81;;;10.85;28.48
57904;BME280;43720;47.462;19.030;2023-04-04T14:23:27;100259.94;;;11.05;29.09
57904;BME280;43720;47.462;19.030;2023-04-04T14:26:31;100262.75;;;11.23;28.59
57904;BME280;43720;47.462;19.030;2023-04-04T14:29:35;100263.75;;;11.40;29.34
57904;BME280;43720;47.462;19.030;2023-04-04T14:32:38;100263.50;;;11.13;28.15
57904;BME280;43720;47.462;19.030;2023-04-04T14:35:40;100259.06;;;11.04;28.13
57904;BME280;43720;47.462;19.030;2023-04-04T14:38:43;100266.91;;;11.07;28.89
57904;BME280;43720;47.462;19.030;2023-04-04T14:41:45;100256.88;;;10.65;28.36
57904;BME280;43720;47.462;19.030;2023-04-04T14:44:47;100260.22;;;10.56;28.59
57904;BME280;43720;47.462;19.030;2023-04-04T14:47:50;100272.38;;;10.51;28.97
57904;BME280;43720;47.462;19.030;2023-04-04T14:50:52;100268.84;;;10.49;28.76
57904;BME280;43720;47.462;19.030;2023-04-04T14:53:55;100270.81;;;10.68;30.52
57904;BME280;43720;47.462;19.030;2023-04-04T14:56:57;100267.37;;;10.69;28.91
57904;BME280;43720;47.462;19.030;2023-04-04T14:59:59;100268.38;;;10.81;28.57
57904;BME280;43720;47.462;19.030;2023-04-04T15:03:02;100269.22;;;10.76;28.69
57904;BME280;43720;47.462;19.030;2023-04-04T15:06:07;100274.66;;;10.98;29.04
57904;BME280;43720;47.462;19.030;2023-04-04T15:09:09;100275.75;;;11.18;30.31
57904;BME280;43720;47.462;19.030;2023-04-04T15:12:12;100276.75;;;11.28;28.89
57904;BME280;43720;47.462;19.030;2023-04-04T15:15:15;100275.13;;;11.42;29.49
57904;BME280;43720;47.462;19.030;2023-04-04T15:18:17;100276.03;;;11.49;29.18
57904;BME280;43720;47.462;19.030;2023-04-04T15:21:19;100281.06;;;11.23;28.66
57904;BME280;43720;47.462;19.030;2023-04-04T15:24:22;100270.09;;;10.77;29.18
57904;BME280;43720;47.462;19.030;2023-04-04T15:27:24;100281.41;;;10.77;29.45
57904;BME280;43720;47.462;19.030;2023-04-04T15:30:27;100273.44;;;10.67;28.52
57904;BME280;43720;47.462;19.030;2023-04-04T15:33:29;100281.37;;;10.74;30.13
57904;BME280;43720;47.462;19.030;2023-04-04T15:36:32;100285.88;;;10.85;28.65
57904;BME280;43720;47.462;19.030;2023-04-04T15:39:34;100284.81;;;10.70;29.07
57904;BME280;43720;47.462;19.030;2023-04-04T15:42:51;100292.84;;;10.87;31.31
